createdAt,value
2022-11-18T00:00:44.221Z,3.60
2022-11-18T00:04:47.464Z,3.60
2022-11-18T00:08:52.175Z,3.50
2022-11-18T00:13:12.678Z,3.40
2022-11-18T00:17:15.981Z,3.40
2022-11-18T00:21:19.199Z,3.30
2022-11-18T00:25:23.986Z,3.10
2022-11-18T00:29:28.482Z,3.10
2022-11-18T00:33:32.976Z,3.10
2022-11-18T00:37:36.301Z,3.30
2022-11-18T00:41:58.681Z,3.40
2022-11-18T00:46:02.170Z,3.60
2022-11-18T00:50:06.037Z,3.70
2022-11-18T00:54:09.292Z,3.90
2022-11-18T00:58:15.354Z,4.10
2022-11-18T01:02:18.604Z,4.20
2022-11-18T01:06:22.000Z,4.20
2022-11-18T01:10:25.271Z,4.20
2022-11-18T01:14:29.940Z,4.20
2022-11-18T01:18:33.297Z,4.30
2022-11-18T01:22:36.612Z,4.30
2022-11-18T01:26:39.901Z,4.40
2022-11-18T01:30:44.558Z,4.60
2022-11-18T01:34:47.837Z,4.70
2022-11-18T01:38:51.759Z,4.70
2022-11-18T01:42:55.125Z,4.70
2022-11-18T01:46:59.790Z,4.80
2022-11-18T01:51:07.190Z,4.80
2022-11-18T01:55:16.030Z,4.70
2022-11-18T01:59:21.990Z,4.80
2022-11-18T02:03:28.274Z,4.90
2022-11-18T02:07:33.034Z,5.00
2022-11-18T02:11:55.164Z,5.00
2022-11-18T02:16:07.071Z,5.10
2022-11-18T02:20:34.658Z,5.10
2022-11-18T02:24:45.664Z,5.20
2022-11-18T02:29:02.014Z,5.10
2022-11-18T02:33:09.962Z,5.10
2022-11-18T02:37:19.226Z,5.10
2022-11-18T02:41:27.488Z,5.10
2022-11-18T02:45:34.122Z,5.20
2022-11-18T02:49:40.816Z,5.30
2022-11-18T02:53:46.968Z,5.30
2022-11-18T02:57:51.448Z,5.30
2022-11-18T03:01:56.122Z,5.30
2022-11-18T03:06:08.842Z,5.30
2022-11-18T03:10:12.719Z,5.30
2022-11-18T03:14:25.092Z,5.30
2022-11-18T03:18:34.033Z,5.30
2022-11-18T03:22:44.089Z,5.30
2022-11-18T03:26:53.415Z,5.30
2022-11-18T03:31:03.986Z,5.40
2022-11-18T03:35:12.587Z,5.30
2022-11-18T03:39:19.966Z,5.30
2022-11-18T03:43:27.091Z,5.30
2022-11-18T03:47:34.980Z,5.30
2022-11-18T03:51:44.446Z,5.20
2022-11-18T03:55:52.091Z,5.30
2022-11-18T04:00:01.335Z,5.20
2022-11-18T04:04:05.435Z,5.20
2022-11-18T04:08:14.752Z,5.10
2022-11-18T04:12:21.686Z,5.00
2022-11-18T04:16:25.109Z,5.00
2022-11-18T04:20:28.860Z,4.90
2022-11-18T04:24:33.555Z,5.00
2022-11-18T04:28:37.019Z,4.90
2022-11-18T04:32:40.311Z,4.70
2022-11-18T04:36:43.670Z,4.70
2022-11-18T04:40:49.012Z,4.70
2022-11-18T04:44:52.374Z,4.60
2022-11-18T04:48:55.637Z,4.60
2022-11-18T04:52:58.894Z,4.50
2022-11-18T04:57:03.610Z,4.50
2022-11-18T05:01:06.948Z,4.50
2022-11-18T05:05:10.527Z,4.50
2022-11-18T05:09:14.285Z,4.50
2022-11-18T05:13:19.059Z,4.50
2022-11-18T05:17:22.499Z,4.50
2022-11-18T05:21:26.077Z,4.70
2022-11-18T05:25:35.623Z,4.80
2022-11-18T05:29:40.794Z,4.80
2022-11-18T05:33:44.962Z,4.90
2022-11-18T05:37:48.300Z,4.80
2022-11-18T05:42:09.148Z,4.80
2022-11-18T05:46:13.830Z,4.80
2022-11-18T05:50:21.317Z,4.80
2022-11-18T05:54:24.915Z,4.80
2022-11-18T05:58:29.209Z,4.80
2022-11-18T06:02:34.034Z,4.90
2022-11-18T06:06:37.505Z,4.90
2022-11-18T06:10:44.318Z,5.00
2022-11-18T06:15:06.397Z,5.00
2022-11-18T06:19:11.215Z,4.90
2022-11-18T06:23:15.277Z,5.00
2022-11-18T06:27:19.167Z,5.10
2022-11-18T06:31:22.424Z,5.00
2022-11-18T06:35:27.301Z,5.00
2022-11-18T06:39:31.006Z,5.00
2022-11-18T06:43:41.833Z,5.20
2022-11-18T06:47:45.231Z,5.10
2022-11-18T06:51:50.442Z,5.00
2022-11-18T06:55:53.801Z,5.20
2022-11-18T07:00:01.805Z,5.30
2022-11-18T07:04:06.495Z,5.30
2022-11-18T07:08:11.325Z,5.30
2022-11-18T07:12:14.617Z,5.30
2022-11-18T07:16:20.230Z,5.20
2022-11-18T07:20:23.565Z,5.10
2022-11-18T07:24:28.227Z,5.20
2022-11-18T07:28:32.298Z,5.30
2022-11-18T07:32:35.598Z,5.30
2022-11-18T07:36:39.046Z,5.30
2022-11-18T07:40:43.851Z,5.40
2022-11-18T07:44:47.454Z,5.40
2022-11-18T07:48:52.256Z,5.50
2022-11-18T07:52:58.196Z,5.50
2022-11-18T07:57:02.989Z,5.40
2022-11-18T08:01:10.492Z,5.60
2022-11-18T08:05:17.907Z,5.50
2022-11-18T08:09:21.659Z,5.50
2022-11-18T08:13:27.218Z,5.70
2022-11-18T08:17:30.762Z,5.70
2022-11-18T08:21:34.059Z,5.70
2022-11-18T08:25:37.549Z,5.50
2022-11-18T08:29:42.365Z,5.50
2022-11-18T08:33:46.250Z,5.70
2022-11-18T08:37:49.587Z,5.80
2022-11-18T08:41:52.949Z,5.80
2022-11-18T08:45:57.702Z,6.00
2022-11-18T08:50:01.004Z,6.10
2022-11-18T08:54:04.399Z,6.10
2022-11-18T08:58:08.336Z,6.10
2022-11-18T09:02:17.011Z,5.90
2022-11-18T09:06:22.928Z,5.90
2022-11-18T09:10:26.332Z,5.90
2022-11-18T09:15:12.356Z,5.90
2022-11-18T09:18:56.892Z,6.00
2022-11-18T09:23:01.292Z,5.80
2022-11-18T09:27:05.774Z,5.90
2022-11-18T09:31:10.498Z,6.00
2022-11-18T09:35:15.875Z,6.20
2022-11-18T09:39:19.452Z,6.20
2022-11-18T09:43:31.002Z,6.20
2022-11-18T09:47:36.843Z,6.00
2022-11-18T09:51:42.963Z,6.20
2022-11-18T09:55:47.083Z,6.00
2022-11-18T09:59:50.443Z,6.30
2022-11-18T10:03:53.836Z,6.30
2022-11-18T10:08:26.893Z,6.30
2022-11-18T10:12:38.841Z,6.30
2022-11-18T10:16:52.735Z,6.40
2022-11-18T10:21:09.498Z,6.50
2022-11-18T10:25:16.214Z,6.50
2022-11-18T10:29:19.561Z,6.60
2022-11-18T10:33:28.131Z,6.70
2022-11-18T10:42:03.114Z,6.60
2022-11-18T10:46:44.826Z,6.80
2022-11-18T10:50:56.225Z,6.70
2022-11-18T10:55:22.312Z,7.00
2022-11-18T10:59:33.861Z,7.10
2022-11-18T11:03:39.620Z,7.10
2022-11-18T11:07:43.195Z,7.00
2022-11-18T11:11:58.831Z,7.10
2022-11-18T11:16:06.360Z,7.10
2022-11-18T11:20:20.342Z,6.90
2022-11-18T11:24:28.002Z,7.10
2022-11-18T11:28:37.964Z,7.10
2022-11-18T11:33:15.289Z,7.20
2022-11-18T11:37:27.713Z,7.20
2022-11-18T11:41:37.378Z,7.10
2022-11-18T11:45:56.109Z,7.40
2022-11-18T11:50:04.161Z,7.70
2022-11-18T11:54:33.200Z,7.70
2022-11-18T11:59:01.885Z,7.50
2022-11-18T12:03:23.660Z,7.70
2022-11-18T12:07:31.668Z,7.80
2022-11-18T12:11:42.619Z,7.80
2022-11-18T12:15:54.827Z,7.80
2022-11-18T12:19:58.136Z,7.90
2022-11-18T12:24:31.357Z,7.90
2022-11-18T12:28:38.373Z,8.00
2022-11-18T12:32:43.626Z,8.00
2022-11-18T12:36:47.528Z,8.10
2022-11-18T12:40:53.315Z,8.20
2022-11-18T12:45:37.371Z,8.40
2022-11-18T12:50:15.115Z,8.40
2022-11-18T12:54:35.768Z,8.70
2022-11-18T12:58:46.704Z,8.90
2022-11-18T13:02:53.690Z,9.40
2022-11-18T13:07:00.352Z,9.90
2022-11-18T13:11:33.061Z,9.70
2022-11-18T13:16:01.222Z,9.80
2022-11-18T13:20:04.712Z,9.60
2022-11-18T13:24:08.680Z,9.60
2022-11-18T13:28:22.978Z,9.60
2022-11-18T13:32:29.137Z,9.50
2022-11-18T13:36:33.916Z,9.40
2022-11-18T13:41:04.502Z,9.20
2022-11-18T13:45:15.008Z,9.10
2022-11-18T13:49:23.443Z,8.90
2022-11-18T13:53:31.419Z,8.70
2022-11-18T13:57:37.304Z,8.50
2022-11-18T14:01:40.669Z,8.40
2022-11-18T14:05:57.704Z,8.40
2022-11-18T14:10:03.482Z,8.20
2022-11-18T14:14:07.837Z,8.10
2022-11-18T14:18:22.705Z,8.00
2022-11-18T14:22:29.844Z,7.90
2022-11-18T14:26:34.995Z,7.70
2022-11-18T14:30:39.927Z,7.60
2022-11-18T14:34:43.639Z,7.70
2022-11-18T14:43:14.575Z,7.50
2022-11-18T14:47:24.439Z,7.40
2022-11-18T14:51:27.729Z,7.50
2022-11-18T14:55:32.420Z,7.50
2022-11-18T14:59:35.734Z,7.40
2022-11-18T15:03:39.103Z,7.30
2022-11-18T15:07:42.496Z,7.10
2022-11-18T15:11:47.483Z,7.00
2022-11-18T15:15:50.798Z,7.00
2022-11-18T15:19:54.058Z,7.00
2022-11-18T15:23:57.417Z,6.90
2022-11-18T15:28:02.112Z,6.80
2022-11-18T15:32:05.634Z,6.70
2022-11-18T15:36:14.194Z,6.70
2022-11-18T15:40:18.149Z,6.70
2022-11-18T15:44:22.864Z,6.60
2022-11-18T15:48:26.219Z,6.50
2022-11-18T15:52:29.715Z,6.50
2022-11-18T15:56:34.595Z,6.50
2022-11-18T16:00:45.143Z,6.50
2022-11-18T16:04:48.791Z,6.50
2022-11-18T16:08:58.841Z,6.40
2022-11-18T16:13:02.752Z,6.40
2022-11-18T16:17:07.395Z,6.40
2022-11-18T16:21:10.789Z,6.40
2022-11-18T16:25:14.159Z,6.30
2022-11-18T16:29:18.663Z,6.30
2022-11-18T16:33:23.712Z,6.40
2022-11-18T16:37:27.806Z,6.40
2022-11-18T16:41:33.919Z,6.30
2022-11-18T16:45:37.771Z,6.30
2022-11-18T16:49:42.724Z,6.30
2022-11-18T16:53:50.809Z,6.20
2022-11-18T16:57:54.374Z,6.20
2022-11-18T17:01:59.739Z,6.20
2022-11-18T17:06:05.218Z,6.10
2022-11-18T17:10:20.080Z,6.10
2022-11-18T17:14:23.674Z,6.10
2022-11-18T17:18:45.261Z,6.10
2022-11-18T17:22:50.622Z,6.00
2022-11-18T17:26:55.807Z,6.00
2022-11-18T17:30:59.554Z,6.00
2022-11-18T17:35:02.943Z,5.90
2022-11-18T17:39:09.141Z,6.00
2022-11-18T17:43:13.024Z,6.00
2022-11-18T17:47:16.999Z,6.00
2022-11-18T17:51:20.735Z,6.00
2022-11-18T17:55:26.703Z,5.90
2022-11-18T17:59:34.579Z,5.80
2022-11-18T18:04:28.106Z,5.90
2022-11-18T18:08:34.407Z,5.90
2022-11-18T18:12:59.569Z,6.00
2022-11-18T18:17:08.610Z,5.80
2022-11-18T18:21:13.456Z,5.70
2022-11-18T18:25:17.370Z,5.70
2022-11-18T18:29:23.260Z,5.50
2022-11-18T18:33:31.495Z,5.50
2022-11-18T18:37:38.175Z,5.50
2022-11-18T18:41:42.040Z,5.40
2022-11-18T18:46:05.595Z,5.40
2022-11-18T18:50:10.566Z,5.20
2022-11-18T18:54:17.122Z,5.20
2022-11-18T18:58:24.175Z,5.20
2022-11-18T19:02:30.375Z,5.30
2022-11-18T19:11:31.208Z,5.40
2022-11-18T19:15:40.025Z,5.50
2022-11-18T19:20:03.227Z,5.60
2022-11-18T19:24:28.341Z,5.70
2022-11-18T19:28:36.730Z,5.80
2022-11-18T19:32:43.342Z,5.80
2022-11-18T19:36:49.070Z,5.90
2022-11-18T19:41:01.404Z,5.90
2022-11-18T19:45:07.968Z,6.00
2022-11-18T19:49:12.101Z,6.00
2022-11-18T19:53:36.693Z,6.10
2022-11-18T19:57:43.712Z,6.10
2022-11-18T20:01:50.287Z,6.10
2022-11-18T20:05:55.229Z,6.10
2022-11-18T20:10:01.018Z,6.10
2022-11-18T20:14:05.616Z,6.10
2022-11-18T20:18:17.259Z,6.10
2022-11-18T20:22:25.845Z,6.20
2022-11-18T20:26:34.703Z,6.20
2022-11-18T20:30:39.149Z,6.20
2022-11-18T20:34:44.519Z,6.20
2022-11-18T20:38:52.149Z,6.20
2022-11-18T20:43:15.296Z,6.20
2022-11-18T20:47:19.849Z,6.10
2022-11-18T20:51:25.842Z,6.10
2022-11-18T20:55:30.628Z,6.10
2022-11-18T20:59:36.191Z,6.10
2022-11-18T21:03:40.885Z,6.10
2022-11-18T21:07:44.527Z,6.20
2022-11-18T21:11:49.388Z,6.20
2022-11-18T21:15:59.447Z,6.20
2022-11-18T21:20:24.106Z,6.10
2022-11-18T21:24:31.108Z,6.20
2022-11-18T21:28:34.805Z,6.20
2022-11-18T21:32:40.563Z,6.00
2022-11-18T21:36:49.016Z,6.00
2022-11-18T21:40:55.200Z,6.10
2022-11-18T21:44:58.578Z,6.00
2022-11-18T21:49:03.599Z,5.90
2022-11-18T21:53:07.037Z,5.90
2022-11-18T21:57:10.869Z,6.00
2022-11-18T22:01:16.992Z,6.00
2022-11-18T22:05:21.789Z,5.90
2022-11-18T22:09:25.265Z,5.90
2022-11-18T22:13:28.830Z,6.10
2022-11-18T22:17:32.138Z,6.10
2022-11-18T22:21:36.828Z,6.00
2022-11-18T22:25:40.104Z,6.00
2022-11-18T22:29:43.539Z,5.90
2022-11-18T22:33:46.930Z,5.90
2022-11-18T22:37:51.589Z,5.90
2022-11-18T22:42:12.208Z,5.90
2022-11-18T22:46:15.460Z,5.80
2022-11-18T22:50:19.176Z,5.70
2022-11-18T22:54:38.477Z,5.60
2022-11-18T22:58:42.984Z,5.50
2022-11-18T23:02:46.317Z,5.60
2022-11-18T23:06:49.725Z,5.60
2022-11-18T23:10:54.459Z,5.70
2022-11-18T23:14:59.950Z,5.60
2022-11-18T23:19:04.708Z,5.60
2022-11-18T23:23:08.114Z,5.60
2022-11-18T23:27:12.884Z,5.40
2022-11-18T23:31:18.729Z,5.60
2022-11-18T23:35:22.034Z,5.70
2022-11-18T23:39:25.311Z,5.50
2022-11-18T23:43:32.131Z,5.40
2022-11-18T23:47:35.947Z,5.30
2022-11-18T23:51:39.334Z,5.40
2022-11-18T23:55:42.758Z,5.60
2022-11-18T23:59:47.444Z,5.50
